sensor_id;sensor_type;location;lat;lon;timestamp;temperature;humidity
2941;DHT22;1480;51.456;6.670;2022-10-16T00:01:38;15.50;99.10
2941;DHT22;1480;51.456;6.670;2022-10-16T00:04:08;15.40;99.90
2941;DHT22;1480;51.456;6.670;2022-10-16T00:06:36;15.30;99.90
2941;DHT22;1480;51.456;6.670;2022-10-16T00:09:04;15.30;99.90
2941;DHT22;1480;51.456;6.670;2022-10-16T00:11:33;15.40;99.90
2941;DHT22;1480;51.456;6.670;2022-10-16T00:14:04;15.50;99.60
2941;DHT22;1480;51.456;6.670;2022-10-16T00:16:33;15.50;99.40
2941;DHT22;1480;51.456;6.670;2022-10-16T00:19:00;15.50;99.20
2941;DHT22;1480;51.456;6.670;2022-10-16T00:21:29;15.50;98.60
2941;DHT22;1480;51.456;6.670;2022-10-16T00:23:59;15.70;98.50
2941;DHT22;1480;51.456;6.670;2022-10-16T00:26:27;15.70;98.40
2941;DHT22;1480;51.456;6.670;2022-10-16T00:28:56;15.60;98.50
2941;DHT22;1480;51.456;6.670;2022-10-16T00:31:23;15.40;99.30
2941;DHT22;1480;51.456;6.670;2022-10-16T00:33:51;15.40;99.70
2941;DHT22;1480;51.456;6.670;2022-10-16T00:36:20;15.40;99.90
2941;DHT22;1480;51.456;6.670;2022-10-16T00:38:50;15.40;99.90
2941;DHT22;1480;51.456;6.670;2022-10-16T00:41:18;15.30;99.90
2941;DHT22;1480;51.456;6.670;2022-10-16T00:43:48;15.40;99.90
2941;DHT22;1480;51.456;6.670;2022-10-16T00:46:18;15.40;99.90
2941;DHT22;1480;51.456;6.670;2022-10-16T00:48:50;15.50;99.70
2941;DHT22;1480;51.456;6.670;2022-10-16T00:51:20;15.50;99.20
2941;DHT22;1480;51.456;6.670;2022-10-16T00:53:50;15.50;98.90
2941;DHT22;1480;51.456;6.670;2022-10-16T00:56:17;15.50;98.90
2941;DHT22;1480;51.456;6.670;2022-10-16T00:58:45;15.50;98.60
2941;DHT22;1480;51.456;6.670;2022-10-16T01:01:12;15.50;98.60
2941;DHT22;1480;51.456;6.670;2022-10-16T01:03:39;15.40;99.90
2941;DHT22;1480;51.456;6.670;2022-10-16T01:06:21;15.20;99.90
2941;DHT22;1480;51.456;6.670;2022-10-16T01:09:06;15.20;99.90
2941;DHT22;1480;51.456;6.670;2022-10-16T01:11:41;15.20;99.90
2941;DHT22;1480;51.456;6.670;2022-10-16T01:14:16;15.10;99.90
2941;DHT22;1480;51.456;6.670;2022-10-16T01:16:52;15.00;99.90
2941;DHT22;1480;51.456;6.670;2022-10-16T01:19:26;15.20;99.90
2941;DHT22;1480;51.456;6.670;2022-10-16T01:21:58;15.30;99.90
2941;DHT22;1480;51.456;6.670;2022-10-16T01:24:35;15.30;99.90
2941;DHT22;1480;51.456;6.670;2022-10-16T01:27:09;15.30;99.90
2941;DHT22;1480;51.456;6.670;2022-10-16T01:29:41;15.40;98.90
2941;DHT22;1480;51.456;6.670;2022-10-16T01:32:15;15.40;99.90
2941;DHT22;1480;51.456;6.670;2022-10-16T01:34:48;15.40;99.90
2941;DHT22;1480;51.456;6.670;2022-10-16T01:37:23;15.20;99.90
2941;DHT22;1480;51.456;6.670;2022-10-16T01:39:53;15.20;99.90
2941;DHT22;1480;51.456;6.670;2022-10-16T01:42:28;15.20;99.90
2941;DHT22;1480;51.456;6.670;2022-10-16T01:44:57;15.10;99.90
2941;DHT22;1480;51.456;6.670;2022-10-16T01:47:27;15.10;99.90
2941;DHT22;1480;51.456;6.670;2022-10-16T01:49:55;15.00;99.90
2941;DHT22;1480;51.456;6.670;2022-10-16T01:52:25;15.20;99.90
2941;DHT22;1480;51.456;6.670;2022-10-16T01:54:55;15.30;99.90
2941;DHT22;1480;51.456;6.670;2022-10-16T01:57:25;15.30;99.90
2941;DHT22;1480;51.456;6.670;2022-10-16T01:59:56;15.40;99.90
2941;DHT22;1480;51.456;6.670;2022-10-16T02:02:26;15.40;98.80
2941;DHT22;1480;51.456;6.670;2022-10-16T02:04:58;15.50;98.60
2941;DHT22;1480;51.456;6.670;2022-10-16T02:07:28;15.40;99.40
2941;DHT22;1480;51.456;6.670;2022-10-16T02:09:55;15.20;99.80
2941;DHT22;1480;51.456;6.670;2022-10-16T02:12:27;15.30;99.90
2941;DHT22;1480;51.456;6.670;2022-10-16T02:14:55;15.10;99.90
2941;DHT22;1480;51.456;6.670;2022-10-16T02:17:23;15.00;99.90
2941;DHT22;1480;51.456;6.670;2022-10-16T02:19:53;14.90;99.90
2941;DHT22;1480;51.456;6.670;2022-10-16T02:22:24;14.90;99.90
2941;DHT22;1480;51.456;6.670;2022-10-16T02:24:57;15.00;99.90
2941;DHT22;1480;51.456;6.670;2022-10-16T02:27:32;14.90;99.90
2941;DHT22;1480;51.456;6.670;2022-10-16T02:30:05;15.10;99.90
2941;DHT22;1480;51.456;6.670;2022-10-16T02:32:36;15.20;99.90
2941;DHT22;1480;51.456;6.670;2022-10-16T02:35:08;15.20;99.90
2941;DHT22;1480;51.456;6.670;2022-10-16T02:37:36;15.20;99.90
2941;DHT22;1480;51.456;6.670;2022-10-16T02:40:04;15.20;99.90
2941;DHT22;1480;51.456;6.670;2022-10-16T02:42:35;15.20;99.90
2941;DHT22;1480;51.456;6.670;2022-10-16T02:45:03;15.10;99.90
2941;DHT22;1480;51.456;6.670;2022-10-16T02:47:33;15.00;99.90
2941;DHT22;1480;51.456;6.670;2022-10-16T02:50:01;14.90;99.90
2941;DHT22;1480;51.456;6.670;2022-10-16T02:52:28;15.00;99.90
2941;DHT22;1480;51.456;6.670;2022-10-16T02:54:55;14.90;99.90
2941;DHT22;1480;51.456;6.670;2022-10-16T02:57:22;14.90;99.90
2941;DHT22;1480;51.456;6.670;2022-10-16T02:59:51;15.00;99.90
2941;DHT22;1480;51.456;6.670;2022-10-16T03:02:18;15.10;99.90
2941;DHT22;1480;51.456;6.670;2022-10-16T03:04:45;15.20;99.90
2941;DHT22;1480;51.456;6.670;2022-10-16T03:07:12;15.20;99.60
2941;DHT22;1480;51.456;6.670;2022-10-16T03:09:39;15.30;98.60
2941;DHT22;1480;51.456;6.670;2022-10-16T03:12:06;15.30;98.10
2941;DHT22;1480;51.456;6.670;2022-10-16T03:14:36;15.40;97.30
2941;DHT22;1480;51.456;6.670;2022-10-16T03:17:06;15.40;97.30
2941;DHT22;1480;51.456;6.670;2022-10-16T03:19:33;15.40;97.10
2941;DHT22;1480;51.456;6.670;2022-10-16T03:22:01;15.40;97.40
2941;DHT22;1480;51.456;6.670;2022-10-16T03:24:28;15.30;97.00
2941;DHT22;1480;51.456;6.670;2022-10-16T03:26:55;15.30;97.40
2941;DHT22;1480;51.456;6.670;2022-10-16T03:29:23;15.30;97.50
2941;DHT22;1480;51.456;6.670;2022-10-16T03:31:51;15.30;96.60
2941;DHT22;1480;51.456;6.670;2022-10-16T03:34:19;15.30;96.40
2941;DHT22;1480;51.456;6.670;2022-10-16T03:36:46;15.40;96.30
2941;DHT22;1480;51.456;6.670;2022-10-16T03:39:13;15.40;94.60
2941;DHT22;1480;51.456;6.670;2022-10-16T03:41:40;15.40;94.50
2941;DHT22;1480;51.456;6.670;2022-10-16T03:44:07;15.30;95.80
2941;DHT22;1480;51.456;6.670;2022-10-16T03:46:34;15.40;94.10
2941;DHT22;1480;51.456;6.670;2022-10-16T03:49:01;15.40;95.10
2941;DHT22;1480;51.456;6.670;2022-10-16T03:51:30;15.40;95.30
2941;DHT22;1480;51.456;6.670;2022-10-16T03:53:57;15.20;95.30
2941;DHT22;1480;51.456;6.670;2022-10-16T03:56:24;15.20;95.50
2941;DHT22;1480;51.456;6.670;2022-10-16T03:58:51;15.20;95.90
2941;DHT22;1480;51.456;6.670;2022-10-16T04:01:17;15.20;96.00
2941;DHT22;1480;51.456;6.670;2022-10-16T04:03:44;15.20;96.20
2941;DHT22;1480;51.456;6.670;2022-10-16T04:06:11;15.20;95.70
2941;DHT22;1480;51.456;6.670;2022-10-16T04:08:42;15.30;95.60
2941;DHT22;1480;51.456;6.670;2022-10-16T04:11:09;15.40;95.20
2941;DHT22;1480;51.456;6.670;2022-10-16T04:13:36;15.40;93.40
2941;DHT22;1480;51.456;6.670;2022-10-16T04:16:03;15.40;94.90
2941;DHT22;1480;51.456;6.670;2022-10-16T04:18:31;15.40;93.50
2941;DHT22;1480;51.456;6.670;2022-10-16T04:21:02;15.40;94.40
2941;DHT22;1480;51.456;6.670;2022-10-16T04:23:29;15.40;94.10
2941;DHT22;1480;51.456;6.670;2022-10-16T04:25:58;15.40;94.40
2941;DHT22;1480;51.456;6.670;2022-10-16T04:28:25;15.30;94.80
2941;DHT22;1480;51.456;6.670;2022-10-16T04:30:52;15.20;95.10
2941;DHT22;1480;51.456;6.670;2022-10-16T04:33:19;15.20;95.10
2941;DHT22;1480;51.456;6.670;2022-10-16T04:35:46;15.10;95.70
2941;DHT22;1480;51.456;6.670;2022-10-16T04:38:13;15.20;95.80
2941;DHT22;1480;51.456;6.670;2022-10-16T04:40:42;15.10;95.60
2941;DHT22;1480;51.456;6.670;2022-10-16T04:43:10;15.20;95.70
2941;DHT22;1480;51.456;6.670;2022-10-16T04:45:37;15.10;95.50
2941;DHT22;1480;51.456;6.670;2022-10-16T04:48:04;15.20;95.20
2941;DHT22;1480;51.456;6.670;2022-10-16T04:50:31;15.30;95.10
2941;DHT22;1480;51.456;6.670;2022-10-16T04:53:04;15.20;94.80
2941;DHT22;1480;51.456;6.670;2022-10-16T04:55:31;15.20;94.40
2941;DHT22;1480;51.456;6.670;2022-10-16T04:57:58;15.30;94.60
2941;DHT22;1480;51.456;6.670;2022-10-16T05:00:27;15.20;94.70
2941;DHT22;1480;51.456;6.670;2022-10-16T05:02:54;15.30;94.80
2941;DHT22;1480;51.456;6.670;2022-10-16T05:05:21;15.20;95.10
2941;DHT22;1480;51.456;6.670;2022-10-16T05:07:48;15.20;95.30
2941;DHT22;1480;51.456;6.670;2022-10-16T05:10:15;15.20;95.50
2941;DHT22;1480;51.456;6.670;2022-10-16T05:12:43;15.10;95.50
2941;DHT22;1480;51.456;6.670;2022-10-16T05:15:10;15.10;95.80
2941;DHT22;1480;51.456;6.670;2022-10-16T05:17:38;15.20;95.20
2941;DHT22;1480;51.456;6.670;2022-10-16T05:20:06;15.20;95.30
2941;DHT22;1480;51.456;6.670;2022-10-16T05:22:33;15.20;95.20
2941;DHT22;1480;51.456;6.670;2022-10-16T05:25:00;15.20;95.10
2941;DHT22;1480;51.456;6.670;2022-10-16T05:27:27;15.30;95.10
2941;DHT22;1480;51.456;6.670;2022-10-16T05:29:54;15.30;95.00
2941;DHT22;1480;51.456;6.670;2022-10-16T05:32:21;15.20;95.20
2941;DHT22;1480;51.456;6.670;2022-10-16T05:34:50;15.30;94.90
2941;DHT22;1480;51.456;6.670;2022-10-16T05:37:17;15.20;95.10
2941;DHT22;1480;51.456;6.670;2022-10-16T05:39:44;15.10;95.50
2941;DHT22;1480;51.456;6.670;2022-10-16T05:42:11;15.00;95.80
2941;DHT22;1480;51.456;6.670;2022-10-16T05:44:38;15.10;96.00
2941;DHT22;1480;51.456;6.670;2022-10-16T05:47:05;15.10;96.00
2941;DHT22;1480;51.456;6.670;2022-10-16T05:49:32;15.00;96.30
2941;DHT22;1480;51.456;6.670;2022-10-16T05:52:00;15.00;96.30
2941;DHT22;1480;51.456;6.670;2022-10-16T05:54:27;15.00;96.50
2941;DHT22;1480;51.456;6.670;2022-10-16T05:56:54;15.10;96.30
2941;DHT22;1480;51.456;6.670;2022-10-16T05:59:21;15.10;96.40
2941;DHT22;1480;51.456;6.670;2022-10-16T06:01:48;15.10;95.80
2941;DHT22;1480;51.456;6.670;2022-10-16T06:04:15;15.10;95.90
2941;DHT22;1480;51.456;6.670;2022-10-16T06:06:42;15.10;95.90
2941;DHT22;1480;51.456;6.670;2022-10-16T06:09:11;15.10;95.90
2941;DHT22;1480;51.456;6.670;2022-10-16T06:11:37;15.10;95.80
2941;DHT22;1480;51.456;6.670;2022-10-16T06:14:05;15.00;96.60
2941;DHT22;1480;51.456;6.670;2022-10-16T06:16:34;15.00;96.50
2941;DHT22;1480;51.456;6.670;2022-10-16T06:19:02;14.90;97.00
2941;DHT22;1480;51.456;6.670;2022-10-16T06:21:31;15.00;96.70
2941;DHT22;1480;51.456;6.670;2022-10-16T06:23:59;15.00;97.00
2941;DHT22;1480;51.456;6.670;2022-10-16T06:26:28;15.00;97.30
2941;DHT22;1480;51.456;6.670;2022-10-16T06:28:57;15.00;97.10
2941;DHT22;1480;51.456;6.670;2022-10-16T06:31:24;15.10;96.90
2941;DHT22;1480;51.456;6.670;2022-10-16T06:33:54;15.20;96.90
2941;DHT22;1480;51.456;6.670;2022-10-16T06:36:22;15.20;96.40
2941;DHT22;1480;51.456;6.670;2022-10-16T06:38:49;15.20;96.80
2941;DHT22;1480;51.456;6.670;2022-10-16T06:41:17;15.30;96.20
2941;DHT22;1480;51.456;6.670;2022-10-16T06:43:46;15.30;96.40
2941;DHT22;1480;51.456;6.670;2022-10-16T06:46:15;15.30;96.00
2941;DHT22;1480;51.456;6.670;2022-10-16T06:48:42;15.20;95.90
2941;DHT22;1480;51.456;6.670;2022-10-16T06:51:10;15.10;96.50
2941;DHT22;1480;51.456;6.670;2022-10-16T06:53:39;15.10;96.50
2941;DHT22;1480;51.456;6.670;2022-10-16T06:56:07;15.10;96.80
2941;DHT22;1480;51.456;6.670;2022-10-16T06:58:34;15.00;97.00
2941;DHT22;1480;51.456;6.670;2022-10-16T07:01:03;14.90;97.30
2941;DHT22;1480;51.456;6.670;2022-10-16T07:03:30;14.90;97.40
2941;DHT22;1480;51.456;6.670;2022-10-16T07:06:00;15.00;97.90
2941;DHT22;1480;51.456;6.670;2022-10-16T07:08:27;15.00;97.60
2941;DHT22;1480;51.456;6.670;2022-10-16T07:10:58;15.10;97.30
2941;DHT22;1480;51.456;6.670;2022-10-16T07:13:26;15.10;97.00
2941;DHT22;1480;51.456;6.670;2022-10-16T07:15:53;15.10;97.00
2941;DHT22;1480;51.456;6.670;2022-10-16T07:18:21;15.10;96.70
2941;DHT22;1480;51.456;6.670;2022-10-16T07:20:52;15.20;96.60
2941;DHT22;1480;51.456;6.670;2022-10-16T07:23:19;15.10;97.10
2941;DHT22;1480;51.456;6.670;2022-10-16T07:25:47;15.20;97.30
2941;DHT22;1480;51.456;6.670;2022-10-16T07:28:19;15.30;97.50
2941;DHT22;1480;51.456;6.670;2022-10-16T07:30:46;15.40;97.80
2941;DHT22;1480;51.456;6.670;2022-10-16T07:33:13;15.50;95.90
2941;DHT22;1480;51.456;6.670;2022-10-16T07:35:49;15.50;95.50
2941;DHT22;1480;51.456;6.670;2022-10-16T07:38:16;15.60;95.40
2941;DHT22;1480;51.456;6.670;2022-10-16T07:40:43;15.80;95.00
2941;DHT22;1480;51.456;6.670;2022-10-16T07:43:10;15.90;94.50
2941;DHT22;1480;51.456;6.670;2022-10-16T07:45:46;16.00;94.10
2941;DHT22;1480;51.456;6.670;2022-10-16T07:48:13;16.00;93.60
2941;DHT22;1480;51.456;6.670;2022-10-16T07:50:40;16.10;93.20
2941;DHT22;1480;51.456;6.670;2022-10-16T07:53:11;16.30;93.00
2941;DHT22;1480;51.456;6.670;2022-10-16T07:55:40;16.40;92.70
2941;DHT22;1480;51.456;6.670;2022-10-16T07:58:07;16.40;92.70
2941;DHT22;1480;51.456;6.670;2022-10-16T08:00:35;16.60;92.40
2941;DHT22;1480;51.456;6.670;2022-10-16T08:03:05;16.60;91.70
2941;DHT22;1480;51.456;6.670;2022-10-16T08:05:36;16.60;91.90
2941;DHT22;1480;51.456;6.670;2022-10-16T08:08:03;16.70;91.50
2941;DHT22;1480;51.456;6.670;2022-10-16T08:10:31;16.70;91.20
2941;DHT22;1480;51.456;6.670;2022-10-16T08:12:59;16.70;91.70
2941;DHT22;1480;51.456;6.670;2022-10-16T08:15:26;16.90;91.80
2941;DHT22;1480;51.456;6.670;2022-10-16T08:17:57;17.00;91.60
2941;DHT22;1480;51.456;6.670;2022-10-16T08:20:25;17.10;91.10
2941;DHT22;1480;51.456;6.670;2022-10-16T08:22:52;17.30;90.50
2941;DHT22;1480;51.456;6.670;2022-10-16T08:25:25;17.40;90.50
2941;DHT22;1480;51.456;6.670;2022-10-16T08:28:03;17.40;89.60
2941;DHT22;1480;51.456;6.670;2022-10-16T08:30:31;17.50;89.20
2941;DHT22;1480;51.456;6.670;2022-10-16T08:32:59;17.50;89.60
2941;DHT22;1480;51.456;6.670;2022-10-16T08:35:29;17.70;90.10
2941;DHT22;1480;51.456;6.670;2022-10-16T08:37:56;17.70;89.10
2941;DHT22;1480;51.456;6.670;2022-10-16T08:40:26;17.80;88.50
2941;DHT22;1480;51.456;6.670;2022-10-16T08:48:45;17.80;88.30
2941;DHT22;1480;51.456;6.670;2022-10-16T08:51:19;18.00;88.70
2941;DHT22;1480;51.456;6.670;2022-10-16T08:53:51;18.10;87.20
2941;DHT22;1480;51.456;6.670;2022-10-16T08:56:19;18.20;86.20
2941;DHT22;1480;51.456;6.670;2022-10-16T08:59:06;18.40;86.10
2941;DHT22;1480;51.456;6.670;2022-10-16T09:01:44;18.50;84.50
2941;DHT22;1480;51.456;6.670;2022-10-16T09:04:52;18.50;84.70
2941;DHT22;1480;51.456;6.670;2022-10-16T09:07:28;18.60;84.80
2941;DHT22;1480;51.456;6.670;2022-10-16T09:10:06;18.60;84.30
2941;DHT22;1480;51.456;6.670;2022-10-16T09:12:38;18.70;83.70
2941;DHT22;1480;51.456;6.670;2022-10-16T09:15:20;18.70;83.40
2941;DHT22;1480;51.456;6.670;2022-10-16T09:17:59;18.60;83.70
2941;DHT22;1480;51.456;6.670;2022-10-16T09:20:33;18.80;82.90
2941;DHT22;1480;51.456;6.670;2022-10-16T09:23:13;18.80;83.10
2941;DHT22;1480;51.456;6.670;2022-10-16T09:25:43;18.80;83.40
2941;DHT22;1480;51.456;6.670;2022-10-16T09:28:13;19.00;83.80
2941;DHT22;1480;51.456;6.670;2022-10-16T09:30:41;19.00;81.60
2941;DHT22;1480;51.456;6.670;2022-10-16T09:33:14;18.90;82.10
2941;DHT22;1480;51.456;6.670;2022-10-16T09:35:43;19.10;81.60
2941;DHT22;1480;51.456;6.670;2022-10-16T09:38:23;19.10;81.80
2941;DHT22;1480;51.456;6.670;2022-10-16T09:40:54;19.20;80.00
2941;DHT22;1480;51.456;6.670;2022-10-16T09:43:26;19.10;80.20
2941;DHT22;1480;51.456;6.670;2022-10-16T09:45:59;19.20;80.90
2941;DHT22;1480;51.456;6.670;2022-10-16T09:48:36;19.30;80.10
2941;DHT22;1480;51.456;6.670;2022-10-16T09:51:13;19.50;81.80
2941;DHT22;1480;51.456;6.670;2022-10-16T09:53:45;19.40;79.90
2941;DHT22;1480;51.456;6.670;2022-10-16T09:56:21;19.60;79.40
2941;DHT22;1480;51.456;6.670;2022-10-16T09:58:50;19.60;79.70
2941;DHT22;1480;51.456;6.670;2022-10-16T10:01:40;19.60;80.10
2941;DHT22;1480;51.456;6.670;2022-10-16T10:04:19;19.70;78.70
2941;DHT22;1480;51.456;6.670;2022-10-16T10:06:53;19.80;77.80
2941;DHT22;1480;51.456;6.670;2022-10-16T10:09:23;19.70;77.50
2941;DHT22;1480;51.456;6.670;2022-10-16T10:11:53;19.80;78.70
2941;DHT22;1480;51.456;6.670;2022-10-16T10:14:23;19.80;79.60
2941;DHT22;1480;51.456;6.670;2022-10-16T10:16:52;19.80;77.10
2941;DHT22;1480;51.456;6.670;2022-10-16T10:19:23;19.90;76.60
2941;DHT22;1480;51.456;6.670;2022-10-16T10:21:51;19.80;76.50
2941;DHT22;1480;51.456;6.670;2022-10-16T10:24:19;19.90;76.80
2941;DHT22;1480;51.456;6.670;2022-10-16T10:26:51;19.90;76.60
2941;DHT22;1480;51.456;6.670;2022-10-16T10:29:30;20.00;76.80
2941;DHT22;1480;51.456;6.670;2022-10-16T10:32:13;20.00;75.90
2941;DHT22;1480;51.456;6.670;2022-10-16T10:35:01;19.90;76.40
2941;DHT22;1480;51.456;6.670;2022-10-16T10:37:52;20.00;74.50
2941;DHT22;1480;51.456;6.670;2022-10-16T10:40:30;20.10;75.60
2941;DHT22;1480;51.456;6.670;2022-10-16T10:43:02;20.10;76.30
2941;DHT22;1480;51.456;6.670;2022-10-16T10:46:04;20.30;77.10
2941;DHT22;1480;51.456;6.670;2022-10-16T10:48:54;20.30;71.70
2941;DHT22;1480;51.456;6.670;2022-10-16T10:51:31;20.40;75.80
2941;DHT22;1480;51.456;6.670;2022-10-16T10:54:10;20.50;74.90
2941;DHT22;1480;51.456;6.670;2022-10-16T10:56:45;20.60;74.50
2941;DHT22;1480;51.456;6.670;2022-10-16T10:59:32;20.70;75.20
2941;DHT22;1480;51.456;6.670;2022-10-16T11:02:05;20.70;75.40
2941;DHT22;1480;51.456;6.670;2022-10-16T11:05:16;20.90;73.60
2941;DHT22;1480;51.456;6.670;2022-10-16T11:07:56;21.00;72.60
2941;DHT22;1480;51.456;6.670;2022-10-16T11:10:28;21.00;71.90
2941;DHT22;1480;51.456;6.670;2022-10-16T11:13:01;21.10;72.00
2941;DHT22;1480;51.456;6.670;2022-10-16T11:15:33;21.00;70.20
2941;DHT22;1480;51.456;6.670;2022-10-16T11:18:06;21.20;71.30
2941;DHT22;1480;51.456;6.670;2022-10-16T11:20:37;21.30;71.60
2941;DHT22;1480;51.456;6.670;2022-10-16T11:23:11;21.40;70.80
2941;DHT22;1480;51.456;6.670;2022-10-16T11:25:43;21.50;71.50
2941;DHT22;1480;51.456;6.670;2022-10-16T11:28:13;21.40;68.50
2941;DHT22;1480;51.456;6.670;2022-10-16T11:30:44;21.30;66.90
2941;DHT22;1480;51.456;6.670;2022-10-16T11:33:24;21.20;67.50
2941;DHT22;1480;51.456;6.670;2022-10-16T11:35:57;21.10;66.90
2941;DHT22;1480;51.456;6.670;2022-10-16T11:38:30;21.20;67.60
2941;DHT22;1480;51.456;6.670;2022-10-16T11:41:03;21.10;66.50
2941;DHT22;1480;51.456;6.670;2022-10-16T11:43:34;21.00;65.60
2941;DHT22;1480;51.456;6.670;2022-10-16T11:46:09;20.80;66.80
2941;DHT22;1480;51.456;6.670;2022-10-16T11:48:43;20.60;68.70
2941;DHT22;1480;51.456;6.670;2022-10-16T11:51:17;20.60;70.80
2941;DHT22;1480;51.456;6.670;2022-10-16T11:53:53;20.60;70.70
2941;DHT22;1480;51.456;6.670;2022-10-16T11:56:22;20.60;71.20
2941;DHT22;1480;51.456;6.670;2022-10-16T11:58:54;20.80;69.60
2941;DHT22;1480;51.456;6.670;2022-10-16T12:01:29;21.00;70.50
2941;DHT22;1480;51.456;6.670;2022-10-16T12:04:10;21.10;70.10
2941;DHT22;1480;51.456;6.670;2022-10-16T12:06:43;21.30;67.70
2941;DHT22;1480;51.456;6.670;2022-10-16T12:09:16;21.30;67.10
2941;DHT22;1480;51.456;6.670;2022-10-16T12:11:46;21.20;66.90
2941;DHT22;1480;51.456;6.670;2022-10-16T12:14:36;21.30;68.30
2941;DHT22;1480;51.456;6.670;2022-10-16T12:19:57;21.30;66.10
2941;DHT22;1480;51.456;6.670;2022-10-16T12:22:28;21.20;68.40
2941;DHT22;1480;51.456;6.670;2022-10-16T12:24:58;21.20;66.50
2941;DHT22;1480;51.456;6.670;2022-10-16T12:27:29;21.10;67.00
2941;DHT22;1480;51.456;6.670;2022-10-16T12:29:58;21.00;67.00
2941;DHT22;1480;51.456;6.670;2022-10-16T12:32:34;20.90;67.20
2941;DHT22;1480;51.456;6.670;2022-10-16T12:35:03;20.80;68.30
2941;DHT22;1480;51.456;6.670;2022-10-16T12:37:33;20.60;67.50
2941;DHT22;1480;51.456;6.670;2022-10-16T12:40:12;20.60;69.80
2941;DHT22;1480;51.456;6.670;2022-10-16T12:42:39;20.60;69.00
2941;DHT22;1480;51.456;6.670;2022-10-16T12:45:26;20.60;69.10
2941;DHT22;1480;51.456;6.670;2022-10-16T12:47:55;20.40;69.30
2941;DHT22;1480;51.456;6.670;2022-10-16T12:50:31;20.40;69.70
2941;DHT22;1480;51.456;6.670;2022-10-16T12:52:59;20.30;70.80
2941;DHT22;1480;51.456;6.670;2022-10-16T12:55:35;20.30;71.40
2941;DHT22;1480;51.456;6.670;2022-10-16T12:58:16;20.40;71.90
2941;DHT22;1480;51.456;6.670;2022-10-16T13:00:54;20.40;70.60
2941;DHT22;1480;51.456;6.670;2022-10-16T13:03:42;20.40;70.70
2941;DHT22;1480;51.456;6.670;2022-10-16T13:06:22;20.40;70.50
2941;DHT22;1480;51.456;6.670;2022-10-16T13:09:21;20.50;69.10
2941;DHT22;1480;51.456;6.670;2022-10-16T13:12:03;20.40;69.80
2941;DHT22;1480;51.456;6.670;2022-10-16T13:14:44;20.50;69.50
2941;DHT22;1480;51.456;6.670;2022-10-16T13:17:22;20.60;70.10
2941;DHT22;1480;51.456;6.670;2022-10-16T13:20:00;20.50;69.50
2941;DHT22;1480;51.456;6.670;2022-10-16T13:22:33;20.60;70.40
2941;DHT22;1480;51.456;6.670;2022-10-16T13:25:14;20.60;69.60
2941;DHT22;1480;51.456;6.670;2022-10-16T13:27:54;20.60;69.10
2941;DHT22;1480;51.456;6.670;2022-10-16T13:30:36;20.60;68.60
2941;DHT22;1480;51.456;6.670;2022-10-16T13:33:12;20.50;68.10
2941;DHT22;1480;51.456;6.670;2022-10-16T13:35:47;20.40;69.20
2941;DHT22;1480;51.456;6.670;2022-10-16T13:38:17;20.40;70.10
2941;DHT22;1480;51.456;6.670;2022-10-16T13:40:51;20.30;68.10
2941;DHT22;1480;51.456;6.670;2022-10-16T13:43:26;20.30;68.30
2941;DHT22;1480;51.456;6.670;2022-10-16T13:45:57;20.40;68.70
2941;DHT22;1480;51.456;6.670;2022-10-16T13:48:24;20.40;69.90
2941;DHT22;1480;51.456;6.670;2022-10-16T13:51:02;20.30;69.60
2941;DHT22;1480;51.456;6.670;2022-10-16T13:53:31;20.40;69.60
2941;DHT22;1480;51.456;6.670;2022-10-16T13:55:59;20.50;69.70
2941;DHT22;1480;51.456;6.670;2022-10-16T13:58:28;20.50;69.40
2941;DHT22;1480;51.456;6.670;2022-10-16T14:00:57;20.60;68.90
2941;DHT22;1480;51.456;6.670;2022-10-16T14:03:25;20.60;70.90
2941;DHT22;1480;51.456;6.670;2022-10-16T14:05:55;20.60;68.80
2941;DHT22;1480;51.456;6.670;2022-10-16T14:08:24;20.40;69.10
2941;DHT22;1480;51.456;6.670;2022-10-16T14:10:54;20.40;68.60
2941;DHT22;1480;51.456;6.670;2022-10-16T14:13:30;20.30;70.30
2941;DHT22;1480;51.456;6.670;2022-10-16T14:16:00;20.30;71.70
2941;DHT22;1480;51.456;6.670;2022-10-16T14:18:29;20.30;71.60
2941;DHT22;1480;51.456;6.670;2022-10-16T14:21:03;20.30;70.60
2941;DHT22;1480;51.456;6.670;2022-10-16T14:23:32;20.30;72.60
2941;DHT22;1480;51.456;6.670;2022-10-16T14:26:15;20.30;71.10
2941;DHT22;1480;51.456;6.670;2022-10-16T14:28:46;20.20;72.70
2941;DHT22;1480;51.456;6.670;2022-10-16T14:31:27;20.20;72.90
2941;DHT22;1480;51.456;6.670;2022-10-16T14:33:55;20.30;73.70
2941;DHT22;1480;51.456;6.670;2022-10-16T14:36:22;20.30;73.70
2941;DHT22;1480;51.456;6.670;2022-10-16T14:39:00;20.40;73.20
2941;DHT22;1480;51.456;6.670;2022-10-16T14:41:30;20.30;72.50
2941;DHT22;1480;51.456;6.670;2022-10-16T14:44:02;20.40;72.90
2941;DHT22;1480;51.456;6.670;2022-10-16T14:46:32;20.30;72.40
2941;DHT22;1480;51.456;6.670;2022-10-16T14:49:03;20.30;73.50
2941;DHT22;1480;51.456;6.670;2022-10-16T14:51:35;20.20;72.60
2941;DHT22;1480;51.456;6.670;2022-10-16T14:54:03;20.20;73.30
2941;DHT22;1480;51.456;6.670;2022-10-16T14:56:32;20.10;74.40
2941;DHT22;1480;51.456;6.670;2022-10-16T14:59:02;19.90;74.80
2941;DHT22;1480;51.456;6.670;2022-10-16T15:01:29;19.90;76.80
2941;DHT22;1480;51.456;6.670;2022-10-16T15:03:56;19.90;76.60
2941;DHT22;1480;51.456;6.670;2022-10-16T15:06:24;19.80;76.00
2941;DHT22;1480;51.456;6.670;2022-10-16T15:08:51;19.70;77.30
2941;DHT22;1480;51.456;6.670;2022-10-16T15:11:18;19.70;78.30
2941;DHT22;1480;51.456;6.670;2022-10-16T15:13:46;19.60;78.10
2941;DHT22;1480;51.456;6.670;2022-10-16T15:16:16;19.50;79.20
2941;DHT22;1480;51.456;6.670;2022-10-16T15:18:43;19.50;78.90
2941;DHT22;1480;51.456;6.670;2022-10-16T15:21:20;19.50;78.90
2941;DHT22;1480;51.456;6.670;2022-10-16T15:23:54;19.50;79.00
2941;DHT22;1480;51.456;6.670;2022-10-16T15:26:22;19.50;78.80
2941;DHT22;1480;51.456;6.670;2022-10-16T15:28:49;19.40;79.80
2941;DHT22;1480;51.456;6.670;2022-10-16T15:31:24;19.40;79.50
2941;DHT22;1480;51.456;6.670;2022-10-16T15:33:52;19.40;79.70
2941;DHT22;1480;51.456;6.670;2022-10-16T15:36:28;19.40;80.20
2941;DHT22;1480;51.456;6.670;2022-10-16T15:38:55;19.30;80.50
2941;DHT22;1480;51.456;6.670;2022-10-16T15:41:22;19.30;80.80
2941;DHT22;1480;51.456;6.670;2022-10-16T15:43:50;19.40;81.00
2941;DHT22;1480;51.456;6.670;2022-10-16T15:46:23;19.30;81.10
2941;DHT22;1480;51.456;6.670;2022-10-16T15:48:51;19.30;81.50
2941;DHT22;1480;51.456;6.670;2022-10-16T15:51:22;19.30;81.80
2941;DHT22;1480;51.456;6.670;2022-10-16T15:53:49;19.20;81.50
2941;DHT22;1480;51.456;6.670;2022-10-16T15:56:16;19.20;81.70
2941;DHT22;1480;51.456;6.670;2022-10-16T15:58:43;19.10;82.20
2941;DHT22;1480;51.456;6.670;2022-10-16T16:01:12;19.10;81.90
2941;DHT22;1480;51.456;6.670;2022-10-16T16:03:40;19.10;82.20
2941;DHT22;1480;51.456;6.670;2022-10-16T16:06:09;19.10;82.10
2941;DHT22;1480;51.456;6.670;2022-10-16T16:08:37;19.00;82.10
2941;DHT22;1480;51.456;6.670;2022-10-16T16:11:06;19.00;82.10
2941;DHT22;1480;51.456;6.670;2022-10-16T16:13:33;19.00;82.60
2941;DHT22;1480;51.456;6.670;2022-10-16T16:16:05;18.90;82.90
2941;DHT22;1480;51.456;6.670;2022-10-16T16:18:32;18.90;82.80
2941;DHT22;1480;51.456;6.670;2022-10-16T16:21:01;18.90;83.00
2941;DHT22;1480;51.456;6.670;2022-10-16T16:23:28;18.90;83.10
2941;DHT22;1480;51.456;6.670;2022-10-16T16:26:07;18.90;83.30
2941;DHT22;1480;51.456;6.670;2022-10-16T16:28:36;18.80;83.20
2941;DHT22;1480;51.456;6.670;2022-10-16T16:31:03;18.70;83.50
2941;DHT22;1480;51.456;6.670;2022-10-16T16:33:32;18.70;83.80
2941;DHT22;1480;51.456;6.670;2022-10-16T16:36:04;18.60;84.20